»·PEaware :: N7357K KPDX-KEUG

N7357K :: KPDX-KEUG

FLIGHT INFORMATION

Flight Status: Arrived
Operator: Privately registered:
United States
More flights under this callsign
Pilot: Steve F. (18480)
Aircraft: BEECH AIRCRAFT BARON
(BE58)
More flights by this aircraft type
Origin: KPDX Portland Intl
United States
Destination: KEUG Mahlon Sweet
United States
More flights between these airports :: More routes between these airports
Route: +PTLD1 BTG V23 EUG
File this flight plan on PilotEdge
Remarks:
Altitude:
(Current/Filed)
6,000ft
Speed:
(Current/Filed)
170kts
Departed: 16-Jul-18 06:47 PM
Arrived: 16-Jul-18 07:32 PM
Distance/Time
Traveled:
92nm/0:45
Distance/Time
To Go:
Arrived

Flight Plot

Page will automatically refresh every two minutes.

Flight plan parsing failed; only flown route is shown


Map Options




Map Legend


Flown Route
Filed Route
Departure Airport
Arrival Airport
Navaid (VOR, NDB)
Fix

Horizontal Profiles

Position Reports

Time Latitude Longitude Heading Altitude Ground
Speed
16-Jul-18 18:31 45.587435 -122.583524 208 17ft 0kts
16-Jul-18 18:32 45.587435 -122.583524 208 17ft 0kts
16-Jul-18 18:33 45.587435 -122.583524 208 17ft 0kts
16-Jul-18 18:34 45.587435 -122.583524 208 17ft 0kts
16-Jul-18 18:35 45.587435 -122.583524 208 17ft 0kts
16-Jul-18 18:36 45.587435 -122.583524 208 17ft 0kts
16-Jul-18 18:37 45.587435 -122.583524 208 17ft 0kts
16-Jul-18 18:38 45.587435 -122.583524 208 17ft 0kts
16-Jul-18 18:39 45.587794 -122.583420 64 17ft 12kts
16-Jul-18 18:40 45.586666 -122.577875 124 17ft 16kts
16-Jul-18 18:41 45.584351 -122.572031 118 17ft 17kts
16-Jul-18 18:42 45.582767 -122.567533 89 17ft 0kts
16-Jul-18 18:43 45.582767 -122.567533 89 17ft 0kts
16-Jul-18 18:44 45.582767 -122.567533 89 17ft 0kts
16-Jul-18 18:45 45.582767 -122.567533 89 17ft 0kts
16-Jul-18 18:46 45.582767 -122.567533 89 17ft 0kts
16-Jul-18 18:47 45.582971 -122.567014 35 17ft 13kts
16-Jul-18 18:48 45.593708 -122.596109 294 381ft 135kts
16-Jul-18 18:49 45.607282 -122.644316 286 1786ft 118kts
16-Jul-18 18:50 45.607194 -122.689208 214 2899ft 122kts
16-Jul-18 18:51 45.572474 -122.685253 177 3630ft 128kts
16-Jul-18 18:52 45.541324 -122.700252 189 4425ft 123kts
16-Jul-18 18:53 45.515463 -122.725577 197 4882ft 138kts
16-Jul-18 18:54 45.480476 -122.727273 163 5489ft 123kts
16-Jul-18 18:55 45.446617 -122.721010 182 5987ft 129kts
16-Jul-18 18:56 45.405235 -122.728405 196 5984ft 173kts
16-Jul-18 18:57 45.356249 -122.746980 197 5979ft 187kts
16-Jul-18 18:58 45.305870 -122.766701 197 5981ft 189kts
16-Jul-18 18:59 45.255287 -122.786557 197 5982ft 189kts
16-Jul-18 19:00 45.204606 -122.806427 197 5982ft 189kts
16-Jul-18 19:01 45.153975 -122.826244 197 5973ft 189kts
16-Jul-18 19:02 45.103119 -122.846111 197 5973ft 189kts
16-Jul-18 19:03 45.052368 -122.865902 197 5970ft 189kts
16-Jul-18 19:04 45.001652 -122.885642 197 5967ft 189kts
16-Jul-18 19:05 44.950862 -122.905374 197 5964ft 189kts
16-Jul-18 19:06 44.900073 -122.925069 197 5957ft 190kts
16-Jul-18 19:07 44.849590 -122.944609 197 5954ft 189kts
16-Jul-18 19:08 44.798934 -122.964182 197 5954ft 189kts
16-Jul-18 19:09 44.748109 -122.983757 197 5957ft 189kts
16-Jul-18 19:10 44.697320 -123.003297 198 5962ft 189kts
16-Jul-18 19:11 44.646613 -123.022782 198 5969ft 189kts
16-Jul-18 19:12 44.595870 -123.042258 199 5975ft 188kts
16-Jul-18 19:13 44.545632 -123.061520 199 5978ft 188kts
16-Jul-18 19:14 44.495509 -123.080682 199 5981ft 185kts
16-Jul-18 19:15 44.444111 -123.078633 170 5951ft 193kts
16-Jul-18 19:16 44.391015 -123.062328 169 5821ft 196kts
16-Jul-18 19:17 44.337615 -123.046047 169 5708ft 197kts
16-Jul-18 19:18 44.284247 -123.029796 168 5503ft 196kts
16-Jul-18 19:19 44.231744 -123.013835 168 5376ft 187kts
16-Jul-18 19:20 44.181916 -122.998724 168 5378ft 182kts
16-Jul-18 19:21 44.133932 -122.984216 168 5264ft 172kts
16-Jul-18 19:22 44.087926 -122.970336 168 4752ft 165kts
16-Jul-18 19:23 44.042894 -122.958341 178 4351ft 165kts
16-Jul-18 19:24 43.999528 -122.971938 209 4046ft 161kts
16-Jul-18 19:25 43.966830 -123.013120 239 3715ft 157kts
16-Jul-18 19:26 43.952770 -123.069847 268 3333ft 156kts
16-Jul-18 19:27 43.959592 -123.128081 296 2972ft 152kts
16-Jul-18 19:28 43.984550 -123.174205 322 2624ft 150kts
16-Jul-18 19:29 44.021960 -123.199239 349 2127ft 145kts
16-Jul-18 19:30 44.060409 -123.201661 0 1459ft 132kts
16-Jul-18 19:31 44.095072 -123.201989 358 919ft 113kts
16-Jul-18 19:32 44.123284 -123.202611 358 365ft 66kts
16-Jul-18 19:33 44.126429 -123.203829 270 361ft 4kts
16-Jul-18 19:34 44.125966 -123.209416 273 360ft 12kts
16-Jul-18 19:35 44.124830 -123.209224 93 360ft 0kts

Navigation Log

Ident Type
Flight plan parsing failed, navigation log unavailable